createdAt,value
2024-04-14T00:01:46.420Z,58.72
2024-04-14T00:03:58.527Z,58.88
2024-04-14T00:06:01.106Z,58.82
2024-04-14T00:08:03.919Z,58.91
2024-04-14T00:10:06.626Z,58.88
2024-04-14T00:12:09.002Z,58.82
2024-04-14T00:14:11.491Z,58.81
2024-04-14T00:16:14.105Z,58.74
2024-04-14T00:18:17.322Z,58.75
2024-04-14T00:20:20.307Z,58.81
2024-04-14T00:22:23.214Z,58.73
2024-04-14T00:24:25.904Z,58.89
2024-04-14T00:26:29.104Z,58.80
2024-04-14T00:28:32.299Z,58.84
2024-04-14T00:30:34.917Z,59.01
2024-04-14T00:32:37.544Z,59.17
2024-04-14T00:34:40.033Z,59.04
2024-04-14T00:36:43.799Z,59.31
2024-04-14T00:38:46.194Z,59.47
2024-04-14T00:40:48.704Z,59.39
2024-04-14T00:42:58.191Z,59.49
2024-04-14T00:45:00.812Z,59.58
2024-04-14T00:47:03.847Z,59.80
2024-04-14T00:49:07.127Z,59.84
2024-04-14T00:51:10.167Z,59.96
2024-04-14T00:53:13.509Z,59.85
2024-04-14T00:55:16.503Z,59.88
2024-04-14T00:57:19.256Z,59.83
2024-04-14T00:59:21.787Z,59.94
2024-04-14T01:01:24.288Z,59.95
2024-04-14T01:03:27.999Z,60.09
2024-04-14T01:05:30.521Z,59.99
2024-04-14T01:07:33.137Z,60.13
2024-04-14T01:09:35.682Z,60.16
2024-04-14T01:11:38.356Z,60.14
2024-04-14T01:13:40.803Z,60.49
2024-04-14T01:15:43.307Z,60.24
2024-04-14T01:17:45.865Z,60.27
2024-04-14T01:19:49.404Z,60.37
2024-04-14T01:21:53.133Z,60.23
2024-04-14T01:23:55.622Z,60.38
2024-04-14T01:25:58.374Z,60.63
2024-04-14T01:28:01.187Z,60.40
2024-04-14T01:30:06.458Z,60.74
2024-04-14T01:32:09.393Z,60.81
2024-04-14T01:34:13.313Z,60.94
2024-04-14T01:36:15.747Z,60.98
2024-04-14T01:38:24.640Z,60.73
2024-04-14T01:40:28.966Z,60.83
2024-04-14T01:42:31.606Z,60.94
2024-04-14T01:44:34.057Z,60.82
2024-04-14T01:46:36.505Z,61.16
2024-04-14T01:48:39.080Z,61.38
2024-04-14T01:50:41.627Z,61.15
2024-04-14T01:52:44.079Z,61.31
2024-04-14T01:54:46.469Z,61.26
2024-04-14T01:56:48.905Z,61.47
2024-04-14T01:58:51.305Z,61.55
2024-04-14T02:00:53.989Z,61.52
2024-04-14T02:02:57.234Z,61.36
2024-04-14T02:05:00.028Z,61.32
2024-04-14T02:07:02.582Z,61.51
2024-04-14T02:09:05.069Z,61.60
2024-04-14T02:11:07.555Z,61.62
2024-04-14T02:13:10.218Z,61.63
2024-04-14T02:15:12.915Z,62.03
2024-04-14T02:17:15.395Z,61.99
2024-04-14T02:19:18.392Z,61.96
2024-04-14T02:21:20.965Z,62.21
2024-04-14T02:23:24.991Z,62.19
2024-04-14T02:25:27.428Z,62.09
2024-04-14T02:27:29.891Z,62.07
2024-04-14T02:29:32.329Z,62.07
2024-04-14T02:31:34.743Z,62.64
2024-04-14T02:33:37.622Z,62.40
2024-04-14T02:36:01.096Z,62.60
2024-04-14T02:38:07.320Z,62.66
2024-04-14T02:40:12.119Z,62.73
2024-04-14T02:42:14.569Z,62.73
2024-04-14T02:44:18.138Z,62.74
2024-04-14T02:46:20.541Z,63.05
2024-04-14T02:48:23.686Z,62.97
2024-04-14T02:50:26.215Z,63.13
2024-04-14T02:52:28.666Z,62.98
2024-04-14T02:54:31.235Z,63.14
2024-04-14T02:56:35.406Z,63.01
2024-04-14T02:58:37.850Z,62.96
2024-04-14T03:00:40.680Z,62.91
2024-04-14T03:02:43.242Z,62.87
2024-04-14T03:04:49.761Z,62.93
2024-04-14T03:06:54.383Z,63.00
2024-04-14T03:08:57.434Z,63.09
2024-04-14T03:11:00.160Z,63.07
2024-04-14T03:13:03.385Z,62.91
2024-04-14T03:15:06.141Z,63.03
2024-04-14T03:17:08.552Z,63.01
2024-04-14T03:19:11.765Z,62.93
2024-04-14T03:21:15.358Z,63.11
2024-04-14T03:23:17.829Z,63.12
2024-04-14T03:25:21.272Z,62.85
2024-04-14T03:27:23.872Z,62.89
2024-04-14T03:29:26.419Z,62.89
2024-04-14T03:31:29.421Z,62.98
2024-04-14T03:33:33.014Z,62.84
2024-04-14T03:35:35.801Z,63.00
2024-04-14T03:37:40.529Z,63.08
2024-04-14T03:39:43.441Z,63.06
2024-04-14T03:41:45.846Z,63.03
2024-04-14T03:43:50.216Z,63.39
2024-04-14T03:45:52.799Z,63.16
2024-04-14T03:47:56.870Z,63.38
2024-04-14T03:49:59.574Z,63.30
2024-04-14T03:52:02.134Z,63.32
2024-04-14T03:54:04.729Z,63.18
2024-04-14T03:56:07.515Z,63.35
2024-04-14T03:58:10.020Z,63.31
2024-04-14T04:00:13.349Z,63.28
2024-04-14T04:02:18.855Z,63.42
2024-04-14T04:04:21.559Z,63.40
2024-04-14T04:06:24.473Z,63.62
2024-04-14T04:08:26.978Z,63.67
2024-04-14T04:10:29.522Z,63.73
2024-04-14T04:12:31.918Z,63.62
2024-04-14T04:14:34.453Z,63.80
2024-04-14T04:16:37.050Z,64.11
2024-04-14T04:18:39.663Z,63.87
2024-04-14T04:20:42.849Z,63.98
2024-04-14T04:22:45.676Z,64.00
2024-04-14T04:24:48.456Z,64.08
2024-04-14T04:26:50.873Z,64.04
2024-04-14T04:28:53.457Z,64.25
2024-04-14T04:30:58.175Z,64.33
2024-04-14T04:33:04.142Z,64.24
2024-04-14T04:35:06.840Z,64.27
2024-04-14T04:37:09.312Z,64.31
2024-04-14T04:39:11.975Z,64.29
2024-04-14T04:41:15.159Z,64.19
2024-04-14T04:43:17.702Z,64.41
2024-04-14T04:45:20.180Z,64.46
2024-04-14T04:47:22.782Z,64.40
2024-04-14T04:49:25.319Z,64.59
2024-04-14T04:51:31.358Z,64.43
2024-04-14T04:53:33.884Z,64.43
2024-04-14T04:55:36.505Z,64.50
2024-04-14T04:57:39.076Z,64.58
2024-04-14T04:59:41.666Z,64.58
2024-04-14T05:01:45.519Z,64.55
2024-04-14T05:03:48.176Z,64.64
2024-04-14T05:06:03.580Z,64.24
2024-04-14T05:08:06.972Z,64.15
2024-04-14T05:10:09.435Z,64.30
2024-04-14T05:12:14.691Z,64.37
2024-04-14T05:14:17.639Z,64.29
2024-04-14T05:16:21.247Z,64.38
2024-04-14T05:18:30.688Z,64.08
2024-04-14T05:20:39.319Z,64.28
2024-04-14T05:22:42.692Z,64.08
2024-04-14T05:24:45.310Z,64.19
2024-04-14T05:26:47.801Z,64.01
2024-04-14T05:28:50.628Z,64.28
2024-04-14T05:30:53.158Z,64.24
2024-04-14T05:32:58.299Z,64.39
2024-04-14T05:35:00.801Z,64.37
2024-04-14T05:37:03.822Z,64.41
2024-04-14T05:39:06.552Z,64.17
2024-04-14T05:41:09.126Z,64.21
2024-04-14T05:43:11.918Z,63.85
2024-04-14T05:45:23.776Z,63.90
2024-04-14T05:47:27.444Z,64.00
2024-04-14T05:49:30.022Z,63.92
2024-04-14T05:51:32.769Z,63.92
2024-04-14T05:53:35.244Z,63.83
2024-04-14T05:55:39.072Z,63.86
2024-04-14T05:57:42.513Z,64.01
2024-04-14T05:59:45.968Z,63.90
2024-04-14T06:01:49.280Z,63.76
2024-04-14T06:03:52.028Z,63.88
2024-04-14T06:05:54.563Z,63.91
2024-04-14T06:07:57.012Z,63.95
2024-04-14T06:10:00.526Z,63.89
2024-04-14T06:12:03.201Z,63.93
2024-04-14T06:14:05.733Z,63.90
2024-04-14T06:16:08.701Z,63.98
2024-04-14T06:18:12.662Z,64.18
2024-04-14T06:20:15.703Z,63.90
2024-04-14T06:22:18.294Z,63.87
2024-04-14T06:24:21.276Z,63.69
2024-04-14T06:26:24.045Z,63.97
2024-04-14T06:28:26.532Z,63.84
2024-04-14T06:30:29.189Z,63.84
2024-04-14T06:32:31.731Z,64.00
2024-04-14T06:34:34.320Z,64.14
2024-04-14T06:36:36.912Z,64.14
2024-04-14T06:38:40.787Z,64.28
2024-04-14T06:40:43.174Z,64.37
2024-04-14T06:42:45.715Z,64.17
2024-04-14T06:44:48.437Z,63.99
2024-04-14T06:46:51.393Z,63.65
2024-04-14T06:48:53.872Z,63.74
2024-04-14T06:50:56.695Z,63.52
2024-04-14T06:53:00.236Z,63.40
2024-04-14T06:55:03.473Z,63.32
2024-04-14T06:57:06.003Z,63.17
2024-04-14T06:59:08.752Z,63.06
2024-04-14T07:01:11.398Z,63.10
2024-04-14T07:03:15.335Z,63.08
2024-04-14T07:05:18.257Z,63.06
2024-04-14T07:07:20.838Z,62.86
2024-04-14T07:09:23.442Z,62.85
2024-04-14T07:11:26.515Z,62.71
2024-04-14T07:13:28.970Z,62.55
2024-04-14T07:15:31.611Z,62.20
2024-04-14T07:17:34.262Z,61.85
2024-04-14T07:19:37.613Z,62.06
2024-04-14T07:21:42.950Z,61.63
2024-04-14T07:23:45.502Z,61.49
2024-04-14T07:25:47.937Z,61.39
2024-04-14T07:27:50.509Z,61.51
2024-04-14T07:29:53.212Z,61.44
2024-04-14T07:31:55.787Z,61.32
2024-04-14T07:34:04.840Z,61.40
2024-04-14T07:36:08.047Z,61.58
2024-04-14T07:38:10.891Z,61.28
2024-04-14T07:40:13.937Z,61.07
2024-04-14T07:42:17.016Z,60.97
2024-04-14T07:44:19.501Z,60.75
2024-04-14T07:46:23.590Z,60.47
2024-04-14T07:48:26.417Z,60.32
2024-04-14T07:50:28.949Z,60.28
2024-04-14T07:52:32.465Z,60.36
2024-04-14T07:54:38.397Z,60.56
2024-04-14T07:56:42.160Z,60.55
2024-04-14T07:58:45.314Z,60.34
2024-04-14T08:00:47.984Z,59.78
2024-04-14T08:02:51.856Z,60.27
2024-04-14T08:04:57.612Z,59.64
2024-04-14T08:07:02.092Z,59.80
2024-04-14T08:09:04.622Z,59.21
2024-04-14T08:11:09.237Z,59.36
2024-04-14T08:13:12.843Z,59.15
2024-04-14T08:15:15.667Z,59.13
2024-04-14T08:17:18.179Z,59.44
2024-04-14T08:19:21.422Z,59.12
2024-04-14T08:21:24.068Z,59.25
2024-04-14T08:23:27.498Z,59.48
2024-04-14T08:25:29.954Z,59.58
2024-04-14T08:27:32.517Z,59.60
2024-04-14T08:29:35.089Z,59.05
2024-04-14T08:31:37.508Z,59.14
2024-04-14T08:33:40.314Z,59.17
2024-04-14T08:35:42.800Z,59.20
2024-04-14T08:37:45.453Z,59.36
2024-04-14T08:39:48.186Z,58.96
2024-04-14T08:41:51.545Z,58.47
2024-04-14T08:43:55.297Z,58.16
2024-04-14T08:45:59.209Z,57.84
2024-04-14T08:48:03.710Z,57.65
2024-04-14T08:50:09.747Z,57.51
2024-04-14T08:52:12.451Z,57.02
2024-04-14T08:54:15.105Z,56.82
2024-04-14T08:56:18.799Z,56.67
2024-04-14T08:58:22.571Z,56.58
2024-04-14T09:00:27.637Z,56.50
2024-04-14T09:02:31.433Z,55.70
2024-04-14T09:04:33.995Z,55.61
2024-04-14T09:06:39.978Z,55.46
2024-04-14T09:08:42.431Z,55.48
2024-04-14T09:10:45.046Z,55.49
2024-04-14T09:12:48.782Z,55.51
2024-04-14T09:14:51.468Z,55.42
2024-04-14T09:16:57.242Z,55.34
2024-04-14T09:18:59.810Z,55.37
2024-04-14T09:21:03.129Z,55.01
2024-04-14T09:23:05.669Z,54.99
2024-04-14T09:25:14.840Z,54.83
2024-04-14T09:27:18.473Z,54.42
2024-04-14T09:29:21.025Z,54.49
2024-04-14T09:31:25.376Z,54.13
2024-04-14T09:33:28.250Z,54.14
2024-04-14T09:35:31.546Z,54.06
2024-04-14T09:37:35.528Z,54.12
2024-04-14T09:39:39.378Z,54.04
2024-04-14T09:41:42.315Z,53.76
2024-04-14T09:43:45.657Z,53.81
2024-04-14T09:45:50.350Z,53.69
2024-04-14T09:47:56.745Z,53.75
2024-04-14T09:49:59.807Z,53.55
2024-04-14T09:52:03.759Z,53.90
2024-04-14T09:54:06.760Z,53.38
2024-04-14T09:56:09.343Z,52.89
2024-04-14T09:58:11.829Z,52.64
2024-04-14T10:00:14.446Z,52.06
2024-04-14T10:02:41.054Z,51.91
2024-04-14T10:04:54.439Z,51.72
2024-04-14T10:06:57.010Z,51.49
2024-04-14T10:08:59.793Z,51.38
2024-04-14T10:11:02.717Z,51.12
2024-04-14T10:13:09.792Z,50.39
2024-04-14T10:15:15.318Z,50.18
2024-04-14T10:17:19.014Z,50.32
2024-04-14T10:19:22.603Z,50.15
2024-04-14T10:21:25.150Z,49.90
2024-04-14T10:23:28.760Z,49.73
2024-04-14T10:25:32.959Z,49.45
2024-04-14T10:27:35.754Z,49.44
2024-04-14T10:29:40.123Z,49.58
2024-04-14T10:31:43.528Z,49.23
2024-04-14T10:33:46.601Z,49.24
2024-04-14T10:36:06.495Z,48.90
2024-04-14T10:38:09.112Z,49.10
2024-04-14T10:40:13.482Z,49.23
2024-04-14T10:42:16.563Z,49.40
2024-04-14T10:44:20.221Z,49.73
2024-04-14T10:46:23.188Z,49.59
2024-04-14T10:48:27.075Z,49.25
2024-04-14T10:50:29.593Z,48.74
2024-04-14T10:52:32.131Z,48.40
2024-04-14T10:54:36.660Z,48.32
2024-04-14T10:56:39.506Z,48.20
2024-04-14T10:58:41.940Z,47.88
2024-04-14T11:00:45.858Z,47.83
2024-04-14T11:02:49.176Z,47.22
2024-04-14T11:04:52.810Z,46.95
2024-04-14T11:06:56.391Z,46.79
2024-04-14T11:09:00.814Z,46.37
2024-04-14T11:11:04.742Z,46.00
2024-04-14T11:13:08.650Z,46.16
2024-04-14T11:15:12.203Z,46.13
2024-04-14T11:17:15.497Z,45.73
2024-04-14T11:19:18.359Z,45.31
2024-04-14T11:21:21.131Z,45.44
2024-04-14T11:23:23.853Z,44.98
2024-04-14T11:25:26.385Z,44.07
2024-04-14T11:27:30.675Z,44.05
2024-04-14T11:29:34.816Z,43.55
2024-04-14T11:31:38.049Z,43.55
2024-04-14T11:33:42.754Z,43.28
2024-04-14T11:35:45.394Z,43.23
2024-04-14T11:37:50.551Z,42.98
2024-04-14T11:39:53.212Z,42.60
2024-04-14T11:41:55.885Z,42.64
2024-04-14T11:43:59.699Z,42.48
2024-04-14T11:46:02.403Z,42.63
2024-04-14T11:48:05.511Z,42.08
2024-04-14T11:50:11.704Z,42.34
2024-04-14T11:52:15.153Z,41.50
2024-04-14T11:54:17.523Z,41.36
2024-04-14T11:56:21.491Z,41.29
2024-04-14T11:58:26.885Z,40.98
2024-04-14T12:00:30.107Z,41.01
2024-04-14T12:02:32.636Z,40.70
2024-04-14T12:04:35.224Z,40.65
2024-04-14T12:06:38.071Z,40.67
2024-04-14T12:08:40.837Z,40.73
2024-04-14T12:10:43.604Z,40.68
2024-04-14T12:12:46.183Z,40.03
2024-04-14T12:14:48.745Z,40.32
2024-04-14T12:16:51.332Z,40.37
2024-04-14T12:18:54.000Z,40.31
2024-04-14T12:20:57.863Z,40.45
2024-04-14T12:23:00.548Z,40.43
2024-04-14T12:25:03.338Z,40.48
2024-04-14T12:27:05.856Z,40.54
2024-04-14T12:29:08.259Z,40.42
2024-04-14T12:31:10.667Z,40.10
2024-04-14T12:33:13.286Z,40.65
2024-04-14T12:35:15.882Z,40.66
2024-04-14T12:37:18.410Z,40.43
2024-04-14T12:39:27.434Z,40.92
2024-04-14T12:41:32.911Z,40.50
2024-04-14T12:43:35.427Z,40.04
2024-04-14T12:45:43.042Z,40.29
2024-04-14T12:47:46.063Z,40.26
2024-04-14T12:49:51.788Z,40.02
2024-04-14T12:51:57.243Z,39.82
2024-04-14T12:53:59.948Z,40.02
2024-04-14T12:56:03.037Z,40.13
2024-04-14T12:58:05.767Z,39.68
2024-04-14T13:00:11.425Z,39.73
2024-04-14T13:02:14.805Z,39.51
2024-04-14T13:04:18.747Z,39.66
2024-04-14T13:06:23.190Z,39.30
2024-04-14T13:08:25.776Z,39.31
2024-04-14T13:10:28.898Z,39.48
2024-04-14T13:12:31.322Z,39.69
2024-04-14T13:14:36.430Z,39.76
2024-04-14T13:16:38.986Z,39.62
2024-04-14T13:18:42.478Z,39.15
2024-04-14T13:20:44.964Z,39.36
2024-04-14T13:22:47.577Z,39.46
2024-04-14T13:24:50.221Z,39.01
2024-04-14T13:26:52.974Z,38.91
2024-04-14T13:28:57.490Z,39.16
2024-04-14T13:31:00.614Z,39.57
2024-04-14T13:33:03.595Z,39.13
2024-04-14T13:35:06.886Z,38.59
2024-04-14T13:37:09.678Z,38.93
2024-04-14T13:39:12.230Z,38.87
2024-04-14T13:41:16.985Z,38.91
2024-04-14T13:43:19.499Z,39.76
2024-04-14T13:45:22.187Z,39.83
2024-04-14T13:47:24.619Z,40.16
2024-04-14T13:49:27.358Z,39.89
2024-04-14T13:51:30.231Z,39.59
2024-04-14T13:53:34.385Z,39.87
2024-04-14T13:55:36.915Z,39.70
2024-04-14T13:57:39.381Z,39.73
2024-04-14T13:59:42.044Z,39.80
2024-04-14T14:01:45.330Z,40.31
2024-04-14T14:03:48.196Z,40.18
2024-04-14T14:05:50.767Z,39.89
2024-04-14T14:07:55.152Z,40.09
2024-04-14T14:09:58.179Z,40.18
2024-04-14T14:12:00.564Z,39.86
2024-04-14T14:14:04.872Z,40.28
2024-04-14T14:16:08.160Z,40.06
2024-04-14T14:18:10.816Z,40.12
2024-04-14T14:20:13.212Z,40.17
2024-04-14T14:22:15.775Z,39.91
2024-04-14T14:24:18.177Z,40.15
2024-04-14T14:26:21.969Z,40.18
2024-04-14T14:28:24.407Z,40.39
2024-04-14T14:30:28.423Z,40.63
2024-04-14T14:32:32.978Z,40.35
2024-04-14T14:34:53.978Z,40.49
2024-04-14T14:36:56.739Z,40.52
2024-04-14T14:39:00.432Z,40.59
2024-04-14T14:41:03.159Z,40.85
2024-04-14T14:43:05.735Z,40.71
2024-04-14T14:45:08.435Z,41.03
2024-04-14T14:47:10.804Z,41.07
2024-04-14T14:49:13.386Z,40.87
2024-04-14T14:51:16.634Z,40.75
2024-04-14T14:53:19.206Z,40.72
2024-04-14T14:55:21.582Z,40.74
2024-04-14T14:57:23.995Z,41.26
2024-04-14T14:59:26.660Z,40.96
2024-04-14T15:01:31.368Z,40.97
2024-04-14T15:03:35.343Z,40.78
2024-04-14T15:05:38.474Z,40.93
2024-04-14T15:07:41.020Z,41.10
2024-04-14T15:09:43.732Z,41.21
2024-04-14T15:11:46.341Z,41.09
2024-04-14T15:13:55.722Z,41.17
2024-04-14T15:15:59.586Z,41.17
2024-04-14T15:18:02.405Z,40.96
2024-04-14T15:20:06.012Z,40.81
2024-04-14T15:22:08.640Z,40.65
2024-04-14T15:24:11.352Z,40.65
2024-04-14T15:26:13.922Z,40.40
2024-04-14T15:28:24.930Z,40.84
2024-04-14T15:30:32.104Z,40.78
2024-04-14T15:32:37.964Z,41.04
2024-04-14T15:34:40.928Z,40.73
2024-04-14T15:36:43.513Z,40.88
2024-04-14T15:38:45.941Z,40.78
2024-04-14T15:40:50.360Z,41.38
2024-04-14T15:42:52.935Z,41.15
2024-04-14T15:44:55.300Z,40.98
2024-04-14T15:46:57.985Z,40.76
2024-04-14T15:49:01.318Z,40.89
2024-04-14T15:51:13.771Z,40.73
2024-04-14T15:53:22.056Z,40.79
2024-04-14T15:55:26.804Z,41.07
2024-04-14T15:57:35.736Z,40.81
2024-04-14T15:59:39.427Z,41.05
2024-04-14T16:01:44.013Z,40.99
2024-04-14T16:03:47.449Z,41.04
2024-04-14T16:05:57.066Z,40.88
2024-04-14T16:07:59.485Z,40.80
2024-04-14T16:10:02.656Z,40.95
2024-04-14T16:12:06.078Z,40.73
2024-04-14T16:14:08.986Z,40.92
2024-04-14T16:16:13.239Z,40.96
2024-04-14T16:18:18.676Z,40.74
2024-04-14T16:20:21.547Z,40.61
2024-04-14T16:22:23.990Z,40.59
2024-04-14T16:24:26.484Z,40.58
2024-04-14T16:26:28.820Z,40.84
2024-04-14T16:28:31.187Z,40.80
2024-04-14T16:30:37.066Z,41.14
2024-04-14T16:32:39.625Z,41.16
2024-04-14T16:34:42.275Z,41.53
2024-04-14T16:36:46.961Z,41.17
2024-04-14T16:38:49.783Z,40.97
2024-04-14T16:40:52.261Z,41.44
2024-04-14T16:42:54.913Z,41.36
2024-04-14T16:44:57.458Z,41.33
2024-04-14T16:47:00.250Z,41.11
2024-04-14T16:49:03.836Z,41.09
2024-04-14T16:51:06.926Z,40.98
2024-04-14T16:53:10.096Z,40.81
2024-04-14T16:55:12.614Z,40.91
2024-04-14T16:57:15.003Z,41.03
2024-04-14T16:59:17.390Z,41.00
2024-04-14T17:01:19.831Z,41.03
2024-04-14T17:03:22.517Z,41.23
2024-04-14T17:05:25.428Z,41.37
2024-04-14T17:07:27.807Z,41.07
2024-04-14T17:09:30.166Z,40.95
2024-04-14T17:11:32.548Z,41.25
2024-04-14T17:13:34.928Z,41.11
2024-04-14T17:15:37.659Z,40.95
2024-04-14T17:17:41.138Z,40.84
2024-04-14T17:19:43.722Z,40.96
2024-04-14T17:21:46.088Z,40.77
2024-04-14T17:23:48.528Z,40.55
2024-04-14T17:25:50.968Z,40.55
2024-04-14T17:27:53.552Z,40.55
2024-04-14T17:29:56.162Z,40.56
2024-04-14T17:31:58.645Z,40.58
2024-04-14T17:34:01.168Z,41.05
2024-04-14T17:36:04.149Z,41.02
2024-04-14T17:38:06.704Z,41.13
2024-04-14T17:40:10.102Z,41.31
2024-04-14T17:42:12.767Z,41.03
2024-04-14T17:44:15.202Z,41.25
2024-04-14T17:46:17.689Z,41.13
2024-04-14T17:48:20.224Z,40.96
2024-04-14T17:50:23.362Z,41.27
2024-04-14T17:52:25.898Z,41.32
2024-04-14T17:54:29.068Z,41.09
2024-04-14T17:56:31.444Z,41.11
2024-04-14T17:58:33.868Z,41.35
2024-04-14T18:00:37.577Z,41.21
2024-04-14T18:02:40.876Z,41.14
2024-04-14T18:04:44.145Z,41.29
2024-04-14T18:06:46.788Z,41.36
2024-04-14T18:08:49.979Z,41.10
2024-04-14T18:10:52.360Z,40.82
2024-04-14T18:12:54.866Z,40.83
2024-04-14T18:14:58.149Z,40.65
2024-04-14T18:17:00.910Z,40.73
2024-04-14T18:19:03.782Z,40.88
2024-04-14T18:21:07.053Z,40.90
2024-04-14T18:23:09.634Z,40.78
2024-04-14T18:25:13.083Z,40.86
2024-04-14T18:27:17.561Z,41.20
2024-04-14T18:29:20.021Z,41.83
2024-04-14T18:31:23.255Z,42.01
2024-04-14T18:33:26.151Z,42.11
2024-04-14T18:35:28.674Z,42.12
2024-04-14T18:37:31.729Z,42.27
2024-04-14T18:39:35.079Z,42.71
2024-04-14T18:41:39.156Z,42.82
2024-04-14T18:43:41.725Z,42.93
2024-04-14T18:45:58.726Z,43.11
2024-04-14T18:48:03.700Z,43.12
2024-04-14T18:50:16.313Z,43.12
2024-04-14T18:52:18.895Z,43.16
2024-04-14T18:54:23.785Z,43.12
2024-04-14T18:56:33.232Z,43.16
2024-04-14T18:58:38.051Z,43.12
2024-04-14T19:00:41.320Z,43.12
2024-04-14T19:02:44.913Z,42.97
2024-04-14T19:04:49.868Z,42.90
2024-04-14T19:06:53.552Z,42.97
2024-04-14T19:08:57.689Z,42.22
2024-04-14T19:11:03.706Z,41.32
2024-04-14T19:13:08.654Z,40.60
2024-04-14T19:15:12.984Z,40.00
2024-04-14T19:17:18.357Z,39.88
2024-04-14T19:19:20.860Z,39.80
2024-04-14T19:21:24.142Z,40.32
2024-04-14T19:23:27.495Z,40.61
2024-04-14T19:25:31.738Z,40.93
2024-04-14T19:27:35.870Z,40.84
2024-04-14T19:29:39.690Z,40.77
2024-04-14T19:31:44.575Z,40.53
2024-04-14T19:33:50.291Z,40.59
2024-04-14T19:35:57.702Z,40.82
2024-04-14T19:38:01.351Z,41.22
2024-04-14T19:40:06.716Z,41.64
2024-04-14T19:42:11.358Z,41.52
2024-04-14T19:44:18.353Z,41.33
2024-04-14T19:46:24.779Z,41.56
2024-04-14T19:48:32.753Z,41.94
2024-04-14T19:50:38.241Z,41.65
2024-04-14T19:52:40.616Z,41.94
2024-04-14T19:54:53.891Z,41.77
2024-04-14T19:56:59.140Z,41.50
2024-04-14T19:59:01.837Z,41.71
2024-04-14T20:01:08.999Z,42.00
2024-04-14T20:03:12.105Z,42.14
2024-04-14T20:05:19.854Z,42.36
2024-04-14T20:07:23.453Z,42.38
2024-04-14T20:09:29.556Z,42.39
2024-04-14T20:11:34.742Z,42.67
2024-04-14T20:13:39.523Z,42.52
2024-04-14T20:15:43.248Z,42.68
2024-04-14T20:17:47.475Z,42.17
2024-04-14T20:19:51.199Z,41.90
2024-04-14T20:21:55.067Z,41.73
2024-04-14T20:23:59.581Z,42.18
2024-04-14T20:26:03.173Z,42.47
2024-04-14T20:28:06.590Z,42.49
2024-04-14T20:30:10.270Z,42.13
2024-04-14T20:32:12.973Z,42.33
2024-04-14T20:34:30.513Z,42.35
2024-04-14T20:36:33.024Z,42.59
2024-04-14T20:38:39.057Z,42.66
2024-04-14T20:40:42.892Z,42.56
2024-04-14T20:42:45.783Z,42.53
2024-04-14T20:44:48.728Z,42.63
2024-04-14T20:46:51.117Z,42.93
2024-04-14T20:48:54.320Z,43.18
2024-04-14T20:50:57.324Z,43.66
2024-04-14T20:52:59.886Z,44.14
2024-04-14T20:55:02.563Z,44.21
2024-04-14T20:57:05.330Z,44.38
2024-04-14T20:59:08.583Z,44.52
2024-04-14T21:01:11.137Z,44.69
2024-04-14T21:03:14.805Z,44.87
2024-04-14T21:05:17.634Z,45.17
2024-04-14T21:07:20.956Z,45.18
2024-04-14T21:09:24.638Z,45.57
2024-04-14T21:11:27.194Z,45.58
2024-04-14T21:13:29.686Z,45.85
2024-04-14T21:15:32.764Z,45.85
2024-04-14T21:17:35.323Z,46.16
2024-04-14T21:19:38.037Z,46.30
2024-04-14T21:21:42.618Z,46.53
2024-04-14T21:23:45.118Z,46.45
2024-04-14T21:25:47.660Z,46.53
2024-04-14T21:27:50.442Z,46.62
2024-04-14T21:29:52.938Z,46.72
2024-04-14T21:32:03.097Z,46.97
2024-04-14T21:34:05.557Z,46.88
2024-04-14T21:36:12.289Z,47.10
2024-04-14T21:38:15.931Z,47.17
2024-04-14T21:40:18.342Z,47.16
2024-04-14T21:42:20.755Z,47.32
2024-04-14T21:44:23.256Z,47.43
2024-04-14T21:46:25.650Z,47.57
2024-04-14T21:48:29.412Z,47.69
2024-04-14T21:50:32.009Z,48.02
2024-04-14T21:52:34.478Z,48.04
2024-04-14T21:54:37.214Z,48.08
2024-04-14T21:56:39.649Z,48.31
2024-04-14T21:58:42.236Z,47.93
2024-04-14T22:00:44.797Z,47.79
2024-04-14T22:02:47.497Z,47.74
2024-04-14T22:04:50.271Z,47.68
2024-04-14T22:06:52.783Z,47.64
2024-04-14T22:08:55.158Z,47.45
2024-04-14T22:10:59.949Z,47.60
2024-04-14T22:13:03.303Z,47.67
2024-04-14T22:15:06.475Z,47.88
2024-04-14T22:17:10.951Z,47.76
2024-04-14T22:19:15.811Z,47.98
2024-04-14T22:21:18.814Z,47.96
2024-04-14T22:23:21.247Z,47.90
2024-04-14T22:25:23.789Z,48.04
2024-04-14T22:27:26.183Z,48.33
2024-04-14T22:29:28.592Z,48.41
2024-04-14T22:31:31.010Z,48.44
2024-04-14T22:33:33.612Z,48.35
2024-04-14T22:35:36.761Z,48.40
2024-04-14T22:37:39.178Z,48.38
2024-04-14T22:39:41.627Z,48.29
2024-04-14T22:41:43.988Z,48.27
2024-04-14T22:43:46.439Z,48.14
2024-04-14T22:45:48.853Z,48.22
2024-04-14T22:47:51.800Z,48.29
2024-04-14T22:49:54.236Z,48.37
2024-04-14T22:51:56.895Z,48.40
2024-04-14T22:54:00.103Z,48.40
2024-04-14T22:56:03.125Z,48.45
2024-04-14T22:58:06.343Z,48.59
2024-04-14T23:00:10.715Z,48.46
2024-04-14T23:02:13.172Z,48.49
2024-04-14T23:04:15.721Z,48.58
2024-04-14T23:06:18.230Z,48.65
2024-04-14T23:08:20.631Z,48.66
2024-04-14T23:10:23.467Z,48.88
2024-04-14T23:12:26.045Z,48.92
2024-04-14T23:14:28.538Z,49.10
2024-04-14T23:16:31.063Z,49.21
2024-04-14T23:18:33.712Z,49.17
2024-04-14T23:20:36.180Z,49.41
2024-04-14T23:22:38.696Z,49.27
2024-04-14T23:24:41.073Z,49.52
2024-04-14T23:26:43.717Z,49.57
2024-04-14T23:28:46.301Z,49.71
2024-04-14T23:30:48.770Z,49.82
2024-04-14T23:32:51.287Z,50.04
2024-04-14T23:34:53.660Z,50.22
2024-04-14T23:36:56.819Z,50.38
2024-04-14T23:39:02.327Z,50.34
2024-04-14T23:41:05.252Z,50.30
2024-04-14T23:43:08.227Z,50.38
2024-04-14T23:45:11.166Z,50.35
2024-04-14T23:47:13.738Z,50.18
2024-04-14T23:49:16.154Z,50.39
2024-04-14T23:51:18.589Z,50.16
2024-04-14T23:53:22.531Z,50.37
2024-04-14T23:55:25.612Z,50.29
2024-04-14T23:57:28.070Z,50.58
2024-04-14T23:59:30.491Z,50.70
